createdAt,value
2022-10-28T00:01:22.110Z,13.80
2022-10-28T00:03:53.390Z,13.80
2022-10-28T00:06:28.055Z,13.80
2022-10-28T00:08:56.090Z,13.80
2022-10-28T00:11:30.349Z,13.80
2022-10-28T00:14:00.361Z,13.70
2022-10-28T00:16:31.261Z,13.70
2022-10-28T00:19:02.917Z,13.70
2022-10-28T00:21:33.734Z,13.70
2022-10-28T00:24:03.705Z,13.60
2022-10-28T00:26:33.149Z,13.70
2022-10-28T00:29:15.965Z,13.60
2022-10-28T00:31:44.020Z,13.60
2022-10-28T00:34:17.458Z,13.50
2022-10-28T00:36:46.214Z,13.50
2022-10-28T00:39:24.236Z,13.50
2022-10-28T00:41:56.886Z,13.50
2022-10-28T00:44:53.622Z,13.50
2022-10-28T00:47:55.602Z,13.50
2022-10-28T00:50:38.066Z,13.50
2022-10-28T00:53:32.325Z,13.40
2022-10-28T00:56:03.097Z,13.40
2022-10-28T00:58:30.789Z,13.40
2022-10-28T01:00:57.747Z,13.40
2022-10-28T01:03:24.743Z,13.30
2022-10-28T01:05:53.010Z,13.30
2022-10-28T01:08:20.207Z,13.30
2022-10-28T01:11:22.778Z,13.20
2022-10-28T01:14:31.582Z,13.30
2022-10-28T01:17:31.566Z,13.30
2022-10-28T01:20:29.472Z,13.20
2022-10-28T01:23:16.743Z,13.20
2022-10-28T01:26:30.088Z,13.20
2022-10-28T01:29:21.231Z,13.20
2022-10-28T01:32:32.822Z,13.20
2022-10-28T01:35:21.081Z,13.20
2022-10-28T01:38:12.318Z,13.20
2022-10-28T01:40:55.806Z,13.30
2022-10-28T01:43:41.115Z,13.30
2022-10-28T01:46:34.510Z,13.30
2022-10-28T01:49:27.403Z,13.30
2022-10-28T01:52:01.884Z,13.30
2022-10-28T01:54:33.274Z,13.40
2022-10-28T01:57:04.789Z,13.40
2022-10-28T01:59:34.451Z,13.40
2022-10-28T02:04:32.993Z,13.40
2022-10-28T02:07:00.932Z,13.40
2022-10-28T02:09:46.798Z,13.30
2022-10-28T02:12:32.788Z,13.30
2022-10-28T02:15:05.695Z,13.30
2022-10-28T02:17:59.310Z,13.40
2022-10-28T02:20:44.007Z,13.30
2022-10-28T02:23:44.201Z,13.40
2022-10-28T02:26:24.314Z,13.30
2022-10-28T02:29:21.464Z,13.30
2022-10-28T02:32:00.152Z,13.30
2022-10-28T02:34:42.933Z,13.30
2022-10-28T02:37:19.658Z,13.30
2022-10-28T02:39:55.948Z,13.30
2022-10-28T02:42:28.826Z,13.30
2022-10-28T02:45:02.048Z,13.30
2022-10-28T02:47:35.905Z,13.30
2022-10-28T02:50:09.534Z,13.20
2022-10-28T02:52:36.747Z,13.20
2022-10-28T02:55:06.378Z,13.10
2022-10-28T02:57:37.953Z,13.10
2022-10-28T03:00:17.056Z,13.10
2022-10-28T03:02:44.006Z,13.10
2022-10-28T03:05:10.968Z,13.10
2022-10-28T03:07:37.863Z,13.00
2022-10-28T03:10:05.147Z,13.10
2022-10-28T03:12:32.048Z,13.00
2022-10-28T03:14:58.884Z,13.00
2022-10-28T03:17:25.730Z,13.00
2022-10-28T03:19:52.597Z,13.00
2022-10-28T03:22:19.371Z,13.00
2022-10-28T03:24:46.235Z,13.00
2022-10-28T03:27:13.040Z,13.00
2022-10-28T03:29:43.428Z,13.00
2022-10-28T03:32:13.247Z,13.10
2022-10-28T03:34:40.194Z,13.10
2022-10-28T03:37:07.134Z,13.10
2022-10-28T03:39:34.000Z,13.10
2022-10-28T03:42:00.791Z,13.00
2022-10-28T03:44:27.644Z,13.00
2022-10-28T03:46:54.398Z,13.10
2022-10-28T03:49:21.173Z,13.00
2022-10-28T03:51:47.960Z,13.10
2022-10-28T03:54:14.751Z,13.00
2022-10-28T03:56:41.576Z,13.10
2022-10-28T03:59:14.063Z,13.10
2022-10-28T04:01:43.232Z,13.10
2022-10-28T04:04:10.179Z,13.10
2022-10-28T04:06:37.005Z,13.10
2022-10-28T04:09:03.866Z,13.00
2022-10-28T04:11:30.794Z,13.10
2022-10-28T04:13:57.589Z,13.20
2022-10-28T04:16:24.360Z,13.20
2022-10-28T04:18:51.225Z,13.20
2022-10-28T04:21:17.990Z,13.20
2022-10-28T04:23:44.844Z,13.30
2022-10-28T04:26:11.756Z,13.20
2022-10-28T04:28:38.526Z,13.20
2022-10-28T04:31:05.424Z,13.20
2022-10-28T04:33:32.446Z,13.20
2022-10-28T04:35:59.245Z,13.30
2022-10-28T04:38:26.010Z,13.30
2022-10-28T04:40:52.851Z,13.30
2022-10-28T04:43:19.631Z,13.30
2022-10-28T04:45:47.344Z,13.30
2022-10-28T04:48:14.577Z,13.30
2022-10-28T04:50:41.928Z,13.30
2022-10-28T04:53:08.731Z,13.30
2022-10-28T04:55:35.533Z,13.30
2022-10-28T04:58:02.439Z,13.30
2022-10-28T05:00:30.658Z,13.30
2022-10-28T05:03:01.313Z,13.30
2022-10-28T05:05:28.083Z,13.30
2022-10-28T05:07:55.286Z,13.30
2022-10-28T05:10:22.333Z,13.30
2022-10-28T05:12:49.162Z,13.30
2022-10-28T05:15:16.456Z,13.30
2022-10-28T05:17:45.058Z,13.30
2022-10-28T05:20:15.487Z,13.30
2022-10-28T05:22:48.276Z,13.30
2022-10-28T05:25:15.632Z,13.30
2022-10-28T05:27:43.474Z,13.30
2022-10-28T05:30:11.160Z,13.30
2022-10-28T05:32:38.051Z,13.30
2022-10-28T05:35:05.754Z,13.30
2022-10-28T05:37:32.547Z,13.30
2022-10-28T05:39:59.401Z,13.30
2022-10-28T05:42:26.370Z,13.30
2022-10-28T05:44:53.139Z,13.30
2022-10-28T05:47:20.010Z,13.30
2022-10-28T05:49:46.803Z,13.30
2022-10-28T05:52:13.647Z,13.30
2022-10-28T05:54:40.420Z,13.30
2022-10-28T05:57:07.199Z,13.30
2022-10-28T05:59:33.997Z,13.30
2022-10-28T06:02:00.794Z,13.30
2022-10-28T06:04:27.623Z,13.30
2022-10-28T06:06:56.218Z,13.40
2022-10-28T06:09:23.032Z,13.30
2022-10-28T06:11:48.349Z,13.40
2022-10-28T06:14:15.130Z,13.40
2022-10-28T06:16:42.342Z,13.40
2022-10-28T06:19:09.157Z,13.50
2022-10-28T06:21:35.989Z,13.50
2022-10-28T06:24:03.411Z,13.60
2022-10-28T06:26:30.270Z,13.60
2022-10-28T06:28:57.125Z,13.70
2022-10-28T06:31:23.984Z,13.80
2022-10-28T06:33:50.830Z,13.90
2022-10-28T06:36:17.616Z,13.90
2022-10-28T06:38:44.424Z,14.00
2022-10-28T06:41:11.224Z,14.00
2022-10-28T06:43:38.020Z,14.10
2022-10-28T06:46:04.918Z,14.10
2022-10-28T06:48:33.250Z,14.20
2022-10-28T06:51:00.166Z,14.40
2022-10-28T06:53:27.059Z,14.30
2022-10-28T06:55:55.939Z,14.40
2022-10-28T06:58:24.053Z,14.50
2022-10-28T07:00:52.089Z,14.50
2022-10-28T07:03:19.487Z,14.60
2022-10-28T07:05:49.908Z,14.70
2022-10-28T07:08:17.166Z,14.80
2022-10-28T07:10:43.938Z,14.80
2022-10-28T07:13:10.788Z,14.90
2022-10-28T07:15:37.557Z,15.00
2022-10-28T07:18:04.583Z,15.10
2022-10-28T07:20:32.935Z,15.20
2022-10-28T07:23:02.137Z,15.30
2022-10-28T07:25:30.945Z,15.40
2022-10-28T07:27:59.315Z,15.50
2022-10-28T07:30:27.451Z,15.60
2022-10-28T07:32:55.001Z,15.70
2022-10-28T07:35:22.277Z,15.80
2022-10-28T07:37:49.122Z,16.00
2022-10-28T07:40:15.940Z,16.30
2022-10-28T07:42:42.715Z,16.60
2022-10-28T07:45:10.027Z,17.00
2022-10-28T07:47:36.832Z,17.30
2022-10-28T07:50:06.239Z,17.60
2022-10-28T07:52:34.910Z,18.00
2022-10-28T07:55:03.048Z,18.30
2022-10-28T07:57:30.019Z,18.70
2022-10-28T07:59:56.801Z,19.00
2022-10-28T08:02:25.326Z,19.40
2022-10-28T08:04:52.431Z,19.90
2022-10-28T08:07:20.128Z,20.30
2022-10-28T08:09:46.997Z,20.70
2022-10-28T08:12:15.297Z,21.10
2022-10-28T08:14:42.265Z,21.60
2022-10-28T08:17:09.207Z,22.00
2022-10-28T08:19:36.095Z,22.30
2022-10-28T08:22:03.608Z,22.70
2022-10-28T08:24:30.386Z,23.10
2022-10-28T08:26:57.256Z,23.50
2022-10-28T08:29:28.986Z,23.90
2022-10-28T08:31:57.804Z,24.20
2022-10-28T08:34:29.734Z,24.60
2022-10-28T08:36:58.036Z,24.90
2022-10-28T08:39:25.055Z,25.20
2022-10-28T08:42:22.508Z,25.60
2022-10-28T08:45:10.801Z,25.90
2022-10-28T08:47:58.569Z,26.40
2022-10-28T08:50:31.704Z,26.70
2022-10-28T08:53:19.421Z,26.90
2022-10-28T08:55:50.738Z,27.00
2022-10-28T08:58:26.497Z,27.00
2022-10-28T09:00:57.070Z,26.80
2022-10-28T09:03:45.067Z,26.60
2022-10-28T09:06:12.030Z,26.30
2022-10-28T09:08:48.257Z,26.10
2022-10-28T09:11:44.380Z,25.80
2022-10-28T09:14:32.144Z,25.50
2022-10-28T09:17:33.191Z,25.30
2022-10-28T09:20:44.230Z,25.10
2022-10-28T09:23:24.153Z,24.90
2022-10-28T09:26:28.300Z,24.80
2022-10-28T09:29:16.239Z,24.80
2022-10-28T09:32:15.802Z,24.80
2022-10-28T09:35:26.671Z,24.80
2022-10-28T09:38:01.741Z,24.80
2022-10-28T09:40:34.928Z,24.80
2022-10-28T09:43:26.859Z,24.80
2022-10-28T09:46:01.876Z,24.80
2022-10-28T09:48:41.261Z,24.80
2022-10-28T09:51:46.972Z,24.80
2022-10-28T09:54:14.405Z,24.80
2022-10-28T09:56:41.780Z,25.10
2022-10-28T09:59:15.549Z,25.40
2022-10-28T10:01:45.767Z,25.70
2022-10-28T10:04:31.334Z,26.10
2022-10-28T10:07:07.870Z,26.50
2022-10-28T10:09:38.622Z,26.80
2022-10-28T10:12:10.208Z,27.10
2022-10-28T10:14:56.533Z,27.30
2022-10-28T10:17:34.053Z,27.40
2022-10-28T10:20:06.914Z,27.50
2022-10-28T10:22:35.172Z,27.50
2022-10-28T10:25:03.158Z,27.50
2022-10-28T10:27:32.023Z,27.50
2022-10-28T10:29:59.467Z,27.50
2022-10-28T10:32:31.419Z,27.50
2022-10-28T10:35:12.942Z,27.50
2022-10-28T10:37:46.909Z,27.60
2022-10-28T10:40:19.029Z,27.70
2022-10-28T10:43:03.474Z,27.70
2022-10-28T10:45:36.426Z,27.70
2022-10-28T10:48:16.195Z,27.80
2022-10-28T10:50:49.558Z,27.70
2022-10-28T10:53:28.270Z,27.70
2022-10-28T10:56:05.255Z,27.60
2022-10-28T10:58:48.556Z,27.60
2022-10-28T11:01:23.157Z,27.50
2022-10-28T11:04:08.382Z,27.50
2022-10-28T11:06:42.869Z,27.40
2022-10-28T11:09:33.783Z,27.40
2022-10-28T11:12:01.156Z,27.30
2022-10-28T11:14:32.359Z,27.30
2022-10-28T11:17:01.964Z,27.30
2022-10-28T11:19:38.401Z,27.30
2022-10-28T11:23:01.653Z,27.20
2022-10-28T11:25:41.644Z,27.20
2022-10-28T11:28:27.385Z,27.20
2022-10-28T11:31:26.526Z,27.20
2022-10-28T11:34:28.878Z,27.10
2022-10-28T11:37:41.932Z,27.10
2022-10-28T11:40:37.214Z,27.10
2022-10-28T11:43:34.865Z,27.10
2022-10-28T11:46:46.923Z,27.20
2022-10-28T11:50:02.594Z,27.20
2022-10-28T11:52:56.243Z,27.10
2022-10-28T11:55:41.752Z,27.10
2022-10-28T11:58:45.959Z,27.20
2022-10-28T12:02:10.769Z,27.20
2022-10-28T12:04:49.456Z,27.20
2022-10-28T12:07:25.047Z,27.20
2022-10-28T12:10:11.293Z,27.20
2022-10-28T12:12:53.368Z,27.20
2022-10-28T12:15:45.338Z,27.20
2022-10-28T12:18:25.838Z,27.10
2022-10-28T12:21:00.875Z,27.10
2022-10-28T12:23:32.103Z,27.10
2022-10-28T12:26:02.072Z,27.10
2022-10-28T12:28:40.807Z,27.00
2022-10-28T12:31:23.376Z,27.00
2022-10-28T12:33:58.296Z,27.00
2022-10-28T12:36:49.788Z,27.00
2022-10-28T12:39:22.009Z,27.10
2022-10-28T12:42:14.306Z,27.20
2022-10-28T12:44:43.551Z,27.20
2022-10-28T12:47:40.561Z,27.30
2022-10-28T12:50:21.799Z,27.40
2022-10-28T12:53:24.803Z,27.50
2022-10-28T12:56:00.810Z,27.60
2022-10-28T12:58:35.172Z,27.70
2022-10-28T13:01:12.897Z,27.90
2022-10-28T13:03:40.789Z,28.00
2022-10-28T13:06:33.214Z,28.10
2022-10-28T13:09:44.871Z,28.20
2022-10-28T13:12:19.264Z,28.40
2022-10-28T13:15:04.602Z,28.40
2022-10-28T13:17:49.505Z,28.40
2022-10-28T13:20:29.008Z,28.40
2022-10-28T13:23:11.171Z,28.40
2022-10-28T13:25:45.993Z,28.30
2022-10-28T13:28:21.547Z,28.20
2022-10-28T13:30:59.180Z,28.10
2022-10-28T13:33:29.397Z,28.10
2022-10-28T13:36:16.422Z,28.10
2022-10-28T13:38:49.741Z,28.00
2022-10-28T13:41:37.434Z,28.00
2022-10-28T13:44:09.952Z,28.00
2022-10-28T13:47:07.000Z,28.10
2022-10-28T13:49:38.325Z,28.10
2022-10-28T13:52:08.265Z,28.20
2022-10-28T13:54:44.279Z,28.30
2022-10-28T13:57:38.257Z,28.30
2022-10-28T14:03:16.630Z,28.40
2022-10-28T14:05:43.833Z,28.40
2022-10-28T14:08:32.463Z,28.40
2022-10-28T14:11:03.826Z,28.40
2022-10-28T14:13:36.701Z,28.50
2022-10-28T14:16:27.441Z,28.50
2022-10-28T14:19:16.915Z,28.60
2022-10-28T14:22:00.650Z,28.60
2022-10-28T14:24:41.993Z,28.60
2022-10-28T14:27:08.743Z,28.50
2022-10-28T14:29:45.451Z,28.50
2022-10-28T14:32:30.787Z,28.50
2022-10-28T14:35:15.540Z,28.50
2022-10-28T14:38:36.254Z,28.40
2022-10-28T14:41:44.572Z,28.30
2022-10-28T14:44:53.932Z,28.20
2022-10-28T14:48:03.972Z,28.10
2022-10-28T14:50:47.225Z,28.00
2022-10-28T14:53:23.751Z,27.90
2022-10-28T14:58:52.575Z,27.60
2022-10-28T15:01:27.686Z,27.40
2022-10-28T15:04:03.174Z,27.40
2022-10-28T15:06:44.383Z,27.20
2022-10-28T15:09:20.287Z,27.10
2022-10-28T15:11:57.090Z,27.00
2022-10-28T15:14:33.871Z,26.90
2022-10-28T15:17:26.540Z,26.80
2022-10-28T15:19:59.473Z,26.70
2022-10-28T15:22:32.998Z,26.50
2022-10-28T15:25:01.851Z,26.40
2022-10-28T15:27:41.137Z,26.30
2022-10-28T15:30:25.811Z,26.20
2022-10-28T15:32:54.801Z,26.00
2022-10-28T15:35:30.508Z,25.90
2022-10-28T15:38:23.356Z,25.70
2022-10-28T15:40:50.492Z,25.60
2022-10-28T15:43:29.413Z,25.40
2022-10-28T15:46:14.081Z,25.30
2022-10-28T15:48:42.185Z,25.20
2022-10-28T15:51:19.873Z,25.00
2022-10-28T15:53:55.168Z,24.80
2022-10-28T15:56:29.639Z,24.70
2022-10-28T15:58:59.106Z,24.50
2022-10-28T16:01:35.064Z,24.40
2022-10-28T16:04:01.958Z,24.20
2022-10-28T16:06:37.081Z,24.10
2022-10-28T16:09:09.398Z,23.90
2022-10-28T16:11:42.467Z,23.80
2022-10-28T16:14:37.408Z,23.70
2022-10-28T16:17:19.936Z,23.50
2022-10-28T16:20:17.225Z,23.40
2022-10-28T16:22:46.535Z,23.20
2022-10-28T16:25:20.587Z,23.10
2022-10-28T16:27:52.157Z,22.90
2022-10-28T16:30:19.388Z,22.80
2022-10-28T16:32:48.955Z,22.70
2022-10-28T16:35:20.182Z,22.60
2022-10-28T16:37:53.713Z,22.50
2022-10-28T16:40:49.797Z,22.40
2022-10-28T16:43:19.647Z,22.30
2022-10-28T16:45:48.439Z,22.20
2022-10-28T16:48:17.602Z,22.00
2022-10-28T16:50:57.571Z,22.00
2022-10-28T16:53:24.515Z,21.90
2022-10-28T16:55:51.643Z,21.80
2022-10-28T16:58:21.878Z,21.80
2022-10-28T17:00:51.914Z,21.70
2022-10-28T17:03:18.765Z,21.60
2022-10-28T17:05:45.709Z,21.60
2022-10-28T17:08:13.225Z,21.50
2022-10-28T17:10:41.823Z,21.40
2022-10-28T17:13:16.189Z,21.40
2022-10-28T17:15:45.561Z,21.30
2022-10-28T17:18:15.057Z,21.20
2022-10-28T17:20:42.514Z,21.20
2022-10-28T17:23:09.297Z,21.10
2022-10-28T17:25:36.178Z,21.10
2022-10-28T17:28:03.310Z,21.00
2022-10-28T17:30:31.634Z,20.90
2022-10-28T17:32:58.505Z,20.90
2022-10-28T17:35:25.370Z,20.80
2022-10-28T17:37:52.608Z,20.70
2022-10-28T17:40:19.771Z,20.70
2022-10-28T17:42:46.577Z,20.60
2022-10-28T17:45:17.900Z,20.60
2022-10-28T17:47:48.270Z,20.50
2022-10-28T17:50:15.153Z,20.40
2022-10-28T17:52:42.070Z,20.40
2022-10-28T17:55:09.613Z,20.30
2022-10-28T17:57:36.427Z,20.30
2022-10-28T18:00:04.476Z,20.20
2022-10-28T18:02:31.306Z,20.20
2022-10-28T18:04:58.224Z,20.10
2022-10-28T18:07:26.607Z,20.10
2022-10-28T18:09:53.470Z,20.00
2022-10-28T18:12:20.282Z,20.00
2022-10-28T18:14:47.103Z,19.90
2022-10-28T18:17:14.641Z,20.00
2022-10-28T18:19:41.408Z,19.90
2022-10-28T18:22:08.160Z,19.90
2022-10-28T18:24:35.016Z,19.80
2022-10-28T18:27:01.833Z,19.80
2022-10-28T18:29:28.728Z,19.80
2022-10-28T18:31:56.672Z,19.70
2022-10-28T18:34:23.852Z,19.70
2022-10-28T18:36:51.614Z,19.70
2022-10-28T18:39:18.419Z,19.70
2022-10-28T18:41:45.247Z,19.70
2022-10-28T18:44:16.897Z,19.60
2022-10-28T18:46:45.283Z,19.70
2022-10-28T18:49:12.518Z,19.60
2022-10-28T18:51:39.369Z,19.60
2022-10-28T18:54:06.325Z,19.60
2022-10-28T18:56:34.260Z,19.60
2022-10-28T18:59:04.485Z,19.60
2022-10-28T19:01:32.466Z,19.60
2022-10-28T19:04:05.142Z,19.50
2022-10-28T19:06:33.899Z,19.50
2022-10-28T19:09:04.167Z,19.50
2022-10-28T19:11:33.340Z,19.50
2022-10-28T19:14:04.260Z,19.50
2022-10-28T19:16:33.695Z,19.50
2022-10-28T19:19:03.286Z,19.50
2022-10-28T19:21:30.885Z,19.50
2022-10-28T19:23:57.904Z,19.50
2022-10-28T19:26:25.188Z,19.50
2022-10-28T19:28:52.299Z,19.50
2022-10-28T19:31:25.557Z,19.50
2022-10-28T19:33:54.066Z,19.50
2022-10-28T19:36:27.376Z,19.40
2022-10-28T19:38:56.220Z,19.40
2022-10-28T19:41:27.067Z,19.40
2022-10-28T19:43:58.052Z,19.40
2022-10-28T19:46:28.765Z,19.40
2022-10-28T19:48:59.405Z,19.40
2022-10-28T19:51:29.695Z,19.50
2022-10-28T19:53:59.543Z,19.40
2022-10-28T19:56:31.794Z,19.40
2022-10-28T19:59:01.430Z,19.40
2022-10-28T20:01:35.076Z,19.40
2022-10-28T20:04:02.736Z,19.30
2022-10-28T20:06:36.502Z,19.30
2022-10-28T20:09:04.969Z,19.40
2022-10-28T20:11:35.897Z,19.40
2022-10-28T20:14:08.284Z,19.40
2022-10-28T20:16:35.818Z,19.30
2022-10-28T20:19:02.687Z,19.30
2022-10-28T20:21:33.394Z,19.30
2022-10-28T20:24:01.152Z,19.30
2022-10-28T20:26:31.024Z,19.20
2022-10-28T20:28:59.288Z,19.20
2022-10-28T20:31:29.418Z,19.20
2022-10-28T20:34:00.574Z,19.20
2022-10-28T20:36:40.079Z,19.20
2022-10-28T20:39:20.671Z,19.20
2022-10-28T20:41:49.007Z,19.10
2022-10-28T20:44:16.366Z,19.10
2022-10-28T20:46:45.098Z,19.10
2022-10-28T20:49:13.222Z,19.10
2022-10-28T20:51:40.822Z,19.00
2022-10-28T20:54:07.910Z,19.00
2022-10-28T20:56:37.762Z,19.00
2022-10-28T20:59:05.536Z,19.00
2022-10-28T21:01:36.530Z,18.90
2022-10-28T21:04:07.942Z,18.90
2022-10-28T21:06:37.164Z,18.90
2022-10-28T21:09:05.274Z,18.90
2022-10-28T21:11:32.757Z,18.90
2022-10-28T21:14:01.181Z,18.80
2022-10-28T21:16:29.539Z,18.80
2022-10-28T21:18:57.059Z,18.80
2022-10-28T21:21:25.210Z,18.80
2022-10-28T21:23:52.553Z,18.80
2022-10-28T21:26:19.625Z,18.80
2022-10-28T21:28:51.946Z,18.80
2022-10-28T21:31:20.894Z,18.80
2022-10-28T21:36:21.810Z,18.80
2022-10-28T21:38:48.708Z,18.80
2022-10-28T21:41:18.832Z,18.80
2022-10-28T21:43:49.221Z,18.70
2022-10-28T21:46:18.277Z,18.80
2022-10-28T21:48:45.539Z,18.80
2022-10-28T21:51:15.578Z,18.80
2022-10-28T21:53:44.680Z,18.80
2022-10-28T21:56:18.234Z,18.80
2022-10-28T21:58:50.317Z,18.80
2022-10-28T22:01:22.899Z,18.90
2022-10-28T22:03:55.553Z,18.90
2022-10-28T22:06:23.957Z,19.00
2022-10-28T22:08:55.211Z,19.00
2022-10-28T22:11:24.159Z,19.10
2022-10-28T22:14:03.334Z,19.10
2022-10-28T22:16:33.619Z,19.10
2022-10-28T22:19:05.754Z,19.20
2022-10-28T22:21:39.193Z,19.20
2022-10-28T22:24:07.382Z,19.30
2022-10-28T22:26:34.797Z,19.30
2022-10-28T22:29:01.908Z,19.40
2022-10-28T22:31:32.162Z,19.40
2022-10-28T22:34:00.605Z,19.40
2022-10-28T22:36:29.732Z,19.50
2022-10-28T22:38:56.948Z,19.50
2022-10-28T22:41:27.652Z,19.50
2022-10-28T22:43:57.966Z,19.50
2022-10-28T22:46:28.068Z,19.50
2022-10-28T22:48:55.472Z,19.50
2022-10-28T22:51:23.175Z,19.60
2022-10-28T22:53:50.475Z,19.60
2022-10-28T22:56:25.882Z,19.70
2022-10-28T22:58:55.535Z,19.70
2022-10-28T23:01:24.125Z,19.70
2022-10-28T23:03:53.118Z,19.80
2022-10-28T23:06:24.418Z,19.90
2022-10-28T23:08:51.322Z,19.80
2022-10-28T23:11:20.963Z,19.90
2022-10-28T23:13:55.286Z,19.90
2022-10-28T23:16:23.985Z,19.90
2022-10-28T23:18:52.900Z,19.90
2022-10-28T23:21:24.131Z,19.90
2022-10-28T23:23:59.889Z,19.80
2022-10-28T23:26:29.325Z,19.80
2022-10-28T23:28:59.506Z,19.80
2022-10-28T23:31:27.424Z,19.70
2022-10-28T23:33:55.170Z,19.70
2022-10-28T23:36:22.475Z,19.60
2022-10-28T23:38:49.282Z,19.50
2022-10-28T23:41:18.810Z,19.40
2022-10-28T23:43:48.579Z,19.30
2022-10-28T23:46:15.623Z,19.20
2022-10-28T23:48:42.679Z,19.10
2022-10-28T23:51:09.822Z,19.00
2022-10-28T23:53:37.440Z,18.80
2022-10-28T23:56:05.105Z,18.70
2022-10-28T23:58:31.943Z,18.60
